Time,TemperatureF,DewpointF,PressureIn,WindDirection,WindDirectionDegrees,WindSpeedMPH,WindSpeedGustMPH,Humidity,HourlyPrecipIn,Conditions,Clouds,dailyrainin,SoftwareType,DateUTC
2013-02-11 00:00:00,49.9,48.2,29.80,SSW,203,0.0,5.0,94,0.00,,BKN055,0.00,VWS V14.00,2013-02-11 05:00:00,
2013-02-11 00:10:00,50.1,48.7,29.80,SW,214,0.0,7.0,95,0.00,,BKN055,0.00,VWS V14.00,2013-02-11 05:10:00,
2013-02-11 00:20:00,50.6,49.2,29.80,WSW,246,2.0,5.0,95,0.00,,BKN055,0.00,VWS V14.00,2013-02-11 05:20:00,
2013-02-11 00:30:00,50.8,49.1,29.79,WSW,242,0.0,4.0,94,0.00,,BKN055,0.00,VWS V14.00,2013-02-11 05:30:00,
2013-02-11 00:40:00,51.2,49.5,29.80,WSW,246,0.0,6.0,94,0.00,,BKN055,0.00,VWS V14.00,2013-02-11 05:40:00,
2013-02-11 00:50:00,51.3,49.6,29.81,SW,233,1.0,5.0,94,0.00,,BKN055,0.00,VWS V14.00,2013-02-11 05:50:00,
2013-02-11 01:00:00,51.4,49.5,29.80,SSW,213,0.0,4.0,93,0.00,,BKN055,0.00,VWS V14.00,2013-02-11 06:00:00,
2013-02-11 01:10:00,51.5,49.8,29.80,SW,217,0.0,4.0,94,0.00,,BKN055,0.00,VWS V14.00,2013-02-11 06:10:00,
2013-02-11 01:20:00,51.5,49.5,29.80,WSW,238,0.0,2.0,93,0.00,,BKN055,0.00,VWS V14.00,2013-02-11 06:20:00,
2013-02-11 01:30:00,51.2,49.5,29.80,South,177,0.0,6.0,94,0.00,,BKN055,0.00,VWS V14.00,2013-02-11 06:30:00,
2013-02-11 01:40:00,51.8,50.4,29.80,WNW,288,0.0,5.0,95,0.00,,BKN055,0.00,VWS V14.00,2013-02-11 06:40:00,
2013-02-11 01:50:00,52.5,51.1,29.80,WSW,241,0.0,7.0,95,0.00,,BKN055,0.00,VWS V14.00,2013-02-11 06:50:00,
2013-02-11 02:00:00,52.6,50.6,29.79,SW,215,0.0,6.0,93,0.00,,BKN055,0.00,VWS V14.00,2013-02-11 07:00:00,
2013-02-11 02:10:00,52.3,50.6,29.79,SSW,195,0.0,5.0,94,0.00,,BKN055,0.00,VWS V14.00,2013-02-11 07:10:00,
2013-02-11 02:20:00,52.1,50.1,29.78,SW,222,1.0,5.0,93,0.00,,BKN055,0.00,VWS V14.00,2013-02-11 07:20:00,
2013-02-11 02:30:00,52.4,50.7,29.79,SSE,149,0.0,5.0,94,0.00,,BKN055,0.00,VWS V14.00,2013-02-11 07:30:00,
2013-02-11 02:40:00,52.8,51.1,29.79,WSW,251,0.0,5.0,94,0.00,,BKN055,0.00,VWS V14.00,2013-02-11 07:40:00,
2013-02-11 02:50:00,53.4,51.7,29.79,WSW,250,0.0,7.0,94,0.00,,BKN055,0.00,VWS V14.00,2013-02-11 07:50:00,
2013-02-11 03:00:00,53.6,51.3,29.78,WSW,240,0.0,6.0,92,0.00,,BKN055,0.00,VWS V14.00,2013-02-11 08:00:00,
2013-02-11 03:10:00,53.4,51.4,29.79,SSW,210,0.0,5.0,93,0.00,,BKN055,0.00,VWS V14.00,2013-02-11 08:10:00,
2013-02-11 03:20:00,52.9,50.3,29.79,WSW,245,2.0,10.0,91,0.00,,BKN055,0.00,VWS V14.00,2013-02-11 08:20:00,
2013-02-11 03:30:00,52.9,50.9,29.79,SW,229,0.0,5.0,93,0.00,,BKN055,0.00,VWS V14.00,2013-02-11 08:30:00,
2013-02-11 03:40:00,53.1,51.1,29.79,SW,232,0.0,9.0,93,0.00,,BKN055,0.00,VWS V14.00,2013-02-11 08:40:00,
2013-02-11 03:50:00,53.1,50.5,29.79,WSW,242,0.0,6.0,91,0.00,,BKN055,0.00,VWS V14.00,2013-02-11 08:50:00,
2013-02-11 04:00:00,52.5,50.0,29.78,SW,223,0.0,6.0,91,0.00,,BKN055,0.00,VWS V14.00,2013-02-11 09:00:00,
2013-02-11 04:10:00,52.8,50.5,29.78,SW,225,0.0,5.0,92,0.00,,BKN055,0.00,VWS V14.00,2013-02-11 09:10:00,
2013-02-11 04:20:00,52.4,49.8,29.78,WSW,239,0.0,4.0,91,0.00,,BKN055,0.00,VWS V14.00,2013-02-11 09:20:00,
2013-02-11 04:30:00,52.2,49.7,29.78,SW,236,2.0,5.0,91,0.00,,BKN055,0.00,VWS V14.00,2013-02-11 09:30:00,
2013-02-11 04:40:00,51.5,49.0,29.78,WSW,252,0.0,3.0,91,0.00,,BKN055,0.00,VWS V14.00,2013-02-11 09:40:00,
2013-02-11 04:50:00,50.9,48.4,29.78,SW,227,0.0,6.0,91,0.00,,BKN055,0.00,VWS V14.00,2013-02-11 09:50:00,
2013-02-11 05:00:00,50.5,48.3,29.79,SW,232,3.0,3.0,92,0.00,,BKN055,0.00,VWS V14.00,2013-02-11 10:00:00,
2013-02-11 05:10:00,51.6,49.4,29.79,WSW,248,0.0,6.0,92,0.00,,BKN055,0.00,VWS V14.00,2013-02-11 10:10:00,
2013-02-11 05:20:00,52.1,49.6,29.79,WSW,245,4.0,6.0,91,0.00,,BKN055,0.00,VWS V14.00,2013-02-11 10:20:00,
2013-02-11 05:30:00,52.2,49.4,29.79,WSW,240,1.0,5.0,90,0.00,,BKN055,0.00,VWS V14.00,2013-02-11 10:30:00,
2013-02-11 05:40:00,51.9,49.1,29.79,South,190,0.0,6.0,90,0.00,,BKN055,0.00,VWS V14.00,2013-02-11 10:40:00,
2013-02-11 05:50:00,51.7,48.9,29.79,SSW,213,7.0,10.0,90,0.00,,BKN055,0.00,VWS V14.00,2013-02-11 10:50:00,
2013-02-11 06:00:00,52.3,48.9,29.80,South,173,4.0,9.0,88,0.00,,BKN055,0.00,VWS V14.00,2013-02-11 11:00:00,
2013-02-11 06:10:00,52.8,48.4,29.81,WSW,241,5.0,16.0,85,0.00,,BKN055,0.00,VWS V14.00,2013-02-11 11:10:00,
2013-02-11 06:20:00,52.8,47.8,29.80,WSW,257,4.0,16.0,83,0.00,,BKN055,0.00,VWS V14.00,2013-02-11 11:20:00,
2013-02-11 06:30:00,52.6,47.3,29.81,NE,53,3.0,13.0,82,0.00,,BKN055,0.00,VWS V14.00,2013-02-11 11:30:00,
2013-02-11 06:40:00,52.6,46.6,29.81,SSE,151,3.0,16.0,80,0.00,,BKN055,0.00,VWS V14.00,2013-02-11 11:40:00,
2013-02-11 06:50:00,52.4,45.8,29.82,SW,232,4.0,16.0,78,0.00,,BKN055,0.00,VWS V14.00,2013-02-11 11:50:00,
2013-02-11 07:00:00,52.3,44.6,29.82,SW,221,8.0,15.0,75,0.00,,BKN055,0.00,VWS V14.00,2013-02-11 12:00:00,
2013-02-11 07:10:00,52.3,42.1,29.82,WSW,238,4.0,22.0,68,0.00,,BKN055,0.00,VWS V14.00,2013-02-11 12:10:00,
2013-02-11 07:20:00,51.9,39.3,29.83,SW,220,8.0,19.0,62,0.00,,BKN055,0.00,VWS V14.00,2013-02-11 12:20:00,
2013-02-11 07:30:00,51.7,38.3,29.83,WSW,244,4.0,24.0,60,0.00,,BKN055,0.00,VWS V14.00,2013-02-11 12:30:00,
2013-02-11 07:40:00,51.1,36.8,29.84,SW,232,13.0,21.0,58,0.00,,BKN055,0.00,VWS V14.00,2013-02-11 12:40:00,
2013-02-11 07:50:00,50.7,36.9,29.85,SW,223,5.0,20.0,59,0.00,,BKN055,0.00,VWS V14.00,2013-02-11 12:50:00,
2013-02-11 08:00:00,50.5,37.2,29.85,WSW,241,11.0,21.0,60,0.00,,BKN055,0.00,VWS V14.00,2013-02-11 13:00:00,
2013-02-11 08:10:00,50.1,37.2,29.85,West,264,5.0,17.0,61,0.00,,BKN055,0.00,VWS V14.00,2013-02-11 13:10:00,
2013-02-11 08:20:00,50.0,36.7,29.86,WSW,244,5.0,19.0,60,0.00,,BKN055,0.00,VWS V14.00,2013-02-11 13:20:00,
2013-02-11 08:30:00,50.0,35.4,29.86,SW,227,13.0,25.0,57,0.00,,BKN055,0.00,VWS V14.00,2013-02-11 13:30:00,
2013-02-11 08:40:00,49.9,35.7,29.87,SW,226,11.0,19.0,58,0.00,,BKN055,0.00,VWS V14.00,2013-02-11 13:40:00,
2013-02-11 08:50:00,49.9,36.2,29.88,West,268,15.0,19.0,59,0.00,,BKN055,0.00,VWS V14.00,2013-02-11 13:50:00,
2013-02-11 09:00:00,49.6,35.5,29.88,WSW,250,7.0,23.0,58,0.00,,BKN055,0.00,VWS V14.00,2013-02-11 14:00:00,
2013-02-11 09:10:00,49.4,35.7,29.89,WNW,290,13.0,20.0,59,0.00,,BKN055,0.00,VWS V14.00,2013-02-11 14:10:00,
2013-02-11 09:20:00,49.4,36.1,29.89,WSW,245,17.0,24.0,60,0.00,,BKN055,0.00,VWS V14.00,2013-02-11 14:20:00,
2013-02-11 09:30:00,49.2,35.9,29.90,WSW,246,7.0,29.0,60,0.00,,BKN055,0.00,VWS V14.00,2013-02-11 14:30:00,
2013-02-11 09:40:00,48.5,36.1,29.90,WSW,257,13.0,23.0,62,0.00,,BKN055,0.00,VWS V14.00,2013-02-11 14:40:00,
2013-02-11 09:50:00,47.9,36.7,29.89,WSW,254,13.0,19.0,65,0.00,,BKN055,0.00,VWS V14.00,2013-02-11 14:50:00,
2013-02-11 10:00:00,47.9,37.1,29.89,WNW,295,12.0,19.0,66,0.00,,BKN055,0.00,VWS V14.00,2013-02-11 15:00:00,
2013-02-11 10:10:00,47.8,36.6,29.90,SSW,211,15.0,22.0,65,0.00,,BKN055,0.00,VWS V14.00,2013-02-11 15:10:00,
2013-02-11 10:20:00,48.3,37.9,29.91,WSW,244,6.0,21.0,67,0.00,,BKN055,0.00,VWS V14.00,2013-02-11 15:20:00,
2013-02-11 10:30:00,48.3,35.9,29.92,WSW,248,11.0,25.0,62,0.00,,BKN055,0.00,VWS V14.00,2013-02-11 15:30:00,
2013-02-11 10:40:00,47.9,35.5,29.92,SW,219,5.0,26.0,62,0.00,,BKN055,0.00,VWS V14.00,2013-02-11 15:40:00,
2013-02-11 10:50:00,47.4,34.6,29.93,WSW,257,9.0,21.0,61,0.00,,BKN055,0.00,VWS V14.00,2013-02-11 15:50:00,
2013-02-11 11:00:00,47.4,35.5,29.93,SSE,158,11.0,26.0,63,0.00,,BKN055,0.00,VWS V14.00,2013-02-11 16:00:00,
2013-02-11 11:10:00,47.2,34.9,29.93,SW,230,3.0,20.0,62,0.00,,BKN055,0.00,VWS V14.00,2013-02-11 16:10:00,
2013-02-11 11:20:00,47.5,35.5,29.94,WSW,242,12.0,19.0,63,0.00,,BKN055,0.00,VWS V14.00,2013-02-11 16:20:00,
2013-02-11 11:30:00,47.5,34.7,29.94,SSW,200,15.0,19.0,61,0.00,,BKN055,0.00,VWS V14.00,2013-02-11 16:30:00,
2013-02-11 11:40:00,47.8,36.2,29.94,West,279,4.0,21.0,64,0.00,,BKN055,0.00,VWS V14.00,2013-02-11 16:40:00,
2013-02-11 11:50:00,47.6,34.4,29.94,West,264,18.0,20.0,60,0.00,,BKN055,0.00,VWS V14.00,2013-02-11 16:50:00,
2013-02-11 12:00:00,47.5,34.7,29.94,SW,230,14.0,19.0,61,0.00,,BKN055,0.00,VWS V14.00,2013-02-11 17:00:00,
2013-02-11 12:10:00,47.2,34.5,29.94,WSW,253,13.0,22.0,61,0.00,,BKN055,0.00,VWS V14.00,2013-02-11 17:10:00,
2013-02-11 12:20:00,47.5,35.1,29.93,WSW,247,10.0,16.0,62,0.00,,BKN055,0.00,VWS V14.00,2013-02-11 17:20:00,
2013-02-11 12:30:00,47.9,34.3,29.94,SSW,211,6.0,21.0,59,0.00,,BKN055,0.00,VWS V14.00,2013-02-11 17:30:00,
2013-02-11 12:40:00,48.2,33.7,29.93,SW,236,14.0,18.0,57,0.00,,BKN055,0.00,VWS V14.00,2013-02-11 17:40:00,
2013-02-11 12:50:00,48.2,34.6,29.93,SW,232,16.0,19.0,59,0.00,,BKN055,0.00,VWS V14.00,2013-02-11 17:50:00,
2013-02-11 13:00:00,48.6,35.4,29.93,WSW,254,6.0,22.0,60,0.00,,BKN055,0.00,VWS V14.00,2013-02-11 18:00:00,
2013-02-11 13:10:00,49.2,35.1,29.93,WSW,257,6.0,19.0,58,0.00,,BKN055,0.00,VWS V14.00,2013-02-11 18:10:00,
2013-02-11 13:20:00,49.2,35.1,29.93,WSW,246,5.0,16.0,58,0.00,,BKN055,0.00,VWS V14.00,2013-02-11 18:20:00,
2013-02-11 13:30:00,48.8,35.1,29.93,WSW,241,13.0,17.0,59,0.00,,BKN055,0.00,VWS V14.00,2013-02-11 18:30:00,
2013-02-11 13:40:00,48.9,34.3,29.93,WSW,254,10.0,19.0,57,0.00,,BKN055,0.00,VWS V14.00,2013-02-11 18:40:00,
2013-02-11 13:50:00,49.0,33.5,29.94,West,270,12.0,20.0,55,0.00,,BKN055,0.00,VWS V14.00,2013-02-11 18:50:00,
2013-02-11 14:00:00,49.9,33.9,29.93,SW,225,6.0,16.0,54,0.00,,BKN055,0.00,VWS V14.00,2013-02-11 19:00:00,
2013-02-11 14:10:00,48.8,33.4,29.93,WSW,250,11.0,27.0,55,0.00,,BKN055,0.00,VWS V14.00,2013-02-11 19:10:00,
2013-02-11 14:20:00,49.9,34.4,29.93,WSW,256,10.0,17.0,55,0.00,,BKN055,0.00,VWS V14.00,2013-02-11 19:20:00,
2013-02-11 14:30:00,50.0,35.4,29.93,West,267,7.0,15.0,57,0.00,,BKN055,0.00,VWS V14.00,2013-02-11 19:30:00,
2013-02-11 14:40:00,49.6,34.1,29.93,West,260,10.0,21.0,55,0.00,,BKN055,0.00,VWS V14.00,2013-02-11 19:40:00,
2013-02-11 14:50:00,50.1,35.0,29.92,SW,235,9.0,18.0,56,0.00,,BKN055,0.00,VWS V14.00,2013-02-11 19:50:00,
2013-02-11 15:00:00,50.3,34.3,29.93,SW,225,10.0,15.0,54,0.00,,BKN055,0.00,VWS V14.00,2013-02-11 20:00:00,
2013-02-11 15:10:00,50.1,33.2,29.93,SW,230,12.0,22.0,52,0.00,,BKN055,0.00,VWS V14.00,2013-02-11 20:10:00,
2013-02-11 15:20:00,50.3,33.8,29.93,SSW,204,8.0,21.0,53,0.00,,BKN055,0.00,VWS V14.00,2013-02-11 20:20:00,
2013-02-11 15:30:00,50.8,34.8,29.93,SSW,205,5.0,14.0,54,0.00,,BKN055,0.00,VWS V14.00,2013-02-11 20:30:00,
2013-02-11 15:40:00,50.9,34.4,29.93,SSE,153,5.0,17.0,53,0.00,,BKN055,0.00,VWS V14.00,2013-02-11 20:40:00,
2013-02-11 15:50:00,51.2,34.2,29.93,WSW,237,12.0,18.0,52,0.00,,BKN055,0.00,VWS V14.00,2013-02-11 20:50:00,
2013-02-11 16:00:00,51.0,34.5,29.93,WSW,245,7.0,18.0,53,0.00,,BKN055,0.00,VWS V14.00,2013-02-11 21:00:00,
2013-02-11 16:10:00,50.6,34.1,29.94,SW,217,13.0,21.0,53,0.00,,BKN055,0.00,VWS V14.00,2013-02-11 21:10:00,
2013-02-11 16:20:00,51.3,34.3,29.94,SW,234,10.0,20.0,52,0.00,,BKN055,0.00,VWS V14.00,2013-02-11 21:20:00,
2013-02-11 16:30:00,51.5,34.0,29.95,West,269,11.0,18.0,51,0.00,,BKN055,0.00,VWS V14.00,2013-02-11 21:30:00,
2013-02-11 16:40:00,51.4,34.4,29.95,WNW,292,10.0,15.0,52,0.00,,BKN055,0.00,VWS V14.00,2013-02-11 21:40:00,
2013-02-11 16:50:00,49.8,33.8,29.95,West,279,11.0,18.0,54,0.00,,BKN055,0.00,VWS V14.00,2013-02-11 21:50:00,
2013-02-11 17:00:00,49.3,33.4,29.95,WNW,289,11.0,21.0,54,0.00,,BKN055,0.00,VWS V14.00,2013-02-11 22:00:00,
2013-02-11 17:10:00,49.6,33.7,29.96,West,277,10.0,18.0,54,0.00,,BKN055,0.00,VWS V14.00,2013-02-11 22:10:00,
2013-02-11 17:20:00,49.3,33.8,29.96,West,267,6.0,21.0,55,0.00,,BKN055,0.00,VWS V14.00,2013-02-11 22:20:00,
2013-02-11 17:30:00,49.0,33.5,29.97,West,261,8.0,16.0,55,0.00,,BKN055,0.00,VWS V14.00,2013-02-11 22:30:00,
2013-02-11 17:40:00,48.3,32.9,29.97,WNW,282,4.0,16.0,55,0.00,,BKN055,0.00,VWS V14.00,2013-02-11 22:40:00,
2013-02-11 17:50:00,47.7,32.8,29.98,West,261,14.0,17.0,56,0.00,,BKN055,0.00,VWS V14.00,2013-02-11 22:50:00,
2013-02-11 18:00:00,47.3,32.4,29.98,West,265,2.0,15.0,56,0.00,,BKN055,0.00,VWS V14.00,2013-02-11 23:00:00,
2013-02-11 18:10:00,46.8,32.8,29.98,West,274,10.0,19.0,58,0.00,,BKN055,0.00,VWS V14.00,2013-02-11 23:10:00,
2013-02-11 18:20:00,46.5,32.5,29.99,WSW,241,2.0,15.0,58,0.00,,BKN055,0.00,VWS V14.00,2013-02-11 23:20:00,
2013-02-11 18:30:00,46.2,32.2,29.99,West,275,11.0,14.0,58,0.00,,BKN055,0.00,VWS V14.00,2013-02-11 23:30:00,
2013-02-11 18:40:00,45.9,32.4,29.99,SW,234,6.0,12.0,59,0.00,,BKN055,0.00,VWS V14.00,2013-02-11 23:40:00,
2013-02-11 18:50:00,45.8,32.3,30.00,WSW,254,2.0,12.0,59,0.00,,BKN055,0.00,VWS V14.00,2013-02-11 23:50:00,
2013-02-11 19:00:00,45.7,32.2,30.00,WSW,246,2.0,13.0,59,0.00,,BKN055,0.00,VWS V14.00,2013-02-12 00:00:00,
2013-02-11 19:10:00,45.8,32.3,30.00,WNW,286,3.0,8.0,59,0.00,,BKN055,0.00,VWS V14.00,2013-02-12 00:10:00,
2013-02-11 19:20:00,45.9,32.4,30.00,WSW,250,4.0,13.0,59,0.00,,BKN055,0.00,VWS V14.00,2013-02-12 00:20:00,
2013-02-11 19:30:00,45.9,32.8,30.01,West,265,0.0,10.0,60,0.00,,BKN055,0.00,VWS V14.00,2013-02-12 00:30:00,
2013-02-11 19:40:00,45.9,32.0,30.02,WSW,244,4.0,19.0,58,0.00,,BKN055,0.00,VWS V14.00,2013-02-12 00:40:00,
2013-02-11 19:50:00,45.2,31.3,30.02,South,191,2.0,11.0,58,0.00,,BKN055,0.00,VWS V14.00,2013-02-12 00:50:00,
2013-02-11 20:00:00,45.0,31.5,30.02,West,270,4.0,15.0,59,0.00,,BKN055,0.00,VWS V14.00,2013-02-12 01:00:00,
2013-02-11 20:10:00,44.9,31.5,30.02,West,265,8.0,14.0,59,0.00,,BKN055,0.00,VWS V14.00,2013-02-12 01:10:00,
2013-02-11 20:20:00,44.6,31.2,30.02,WSW,241,4.0,8.0,59,0.00,,BKN055,0.00,VWS V14.00,2013-02-12 01:20:00,
2013-02-11 20:30:00,44.0,31.4,30.03,WSW,244,0.0,10.0,61,0.00,,BKN055,0.00,VWS V14.00,2013-02-12 01:30:00,
2013-02-11 20:40:00,43.9,31.3,30.03,SSW,212,0.0,10.0,61,0.00,,BKN055,0.00,VWS V14.00,2013-02-12 01:40:00,
2013-02-11 20:50:00,43.4,31.3,30.03,SW,219,3.0,6.0,62,0.00,,BKN055,0.00,VWS V14.00,2013-02-12 01:50:00,
2013-02-11 21:00:00,43.4,31.3,30.03,WSW,254,0.0,6.0,62,0.00,,BKN055,0.00,VWS V14.00,2013-02-12 02:00:00,
2013-02-11 21:10:00,42.9,31.2,30.03,WSW,253,0.0,0.0,63,0.00,,BKN055,0.00,VWS V14.00,2013-02-12 02:10:00,
2013-02-11 21:20:00,42.5,33.4,30.03,SSW,209,0.0,5.0,70,0.00,,BKN055,0.00,VWS V14.00,2013-02-12 02:20:00,
2013-02-11 21:30:00,41.6,33.6,30.04,SSW,202,0.0,0.0,73,0.00,,BKN055,0.00,VWS V14.00,2013-02-12 02:30:00,
2013-02-11 21:40:00,40.9,32.9,30.04,SSW,202,0.0,2.0,73,0.00,,BKN055,0.00,VWS V14.00,2013-02-12 02:40:00,
2013-02-11 21:50:00,40.3,32.3,30.05,SSW,203,0.0,1.0,73,0.00,,BKN055,0.00,VWS V14.00,2013-02-12 02:50:00,
2013-02-11 22:00:00,39.8,31.9,30.05,SSE,153,0.0,3.0,73,0.00,,BKN055,0.00,VWS V14.00,2013-02-12 03:00:00,
2013-02-11 22:10:00,39.4,31.8,30.05,SW,220,2.0,3.0,74,0.00,,BKN055,0.00,VWS V14.00,2013-02-12 03:10:00,
2013-02-11 22:20:00,39.3,32.0,30.05,SW,216,0.0,3.0,75,0.00,,BKN055,0.00,VWS V14.00,2013-02-12 03:20:00,
2013-02-11 22:30:00,38.9,32.3,30.05,WSW,240,0.0,2.0,77,0.00,,BKN055,0.00,VWS V14.00,2013-02-12 03:30:00,
2013-02-11 22:40:00,38.6,32.3,30.05,WSW,238,0.0,4.0,78,0.00,,BKN055,0.00,VWS V14.00,2013-02-12 03:40:00,
2013-02-11 22:50:00,38.4,32.2,30.06,SW,225,0.0,4.0,78,0.00,,BKN055,0.00,VWS V14.00,2013-02-12 03:50:00,
2013-02-11 23:00:00,38.4,32.5,30.06,SW,219,0.0,3.0,79,0.00,,BKN055,0.00,VWS V14.00,2013-02-12 04:00:00,
2013-02-11 23:10:00,38.1,31.9,30.06,SW,220,0.0,3.0,78,0.00,,BKN055,0.00,VWS V14.00,2013-02-12 04:10:00,
2013-02-11 23:20:00,38.0,32.1,30.06,SW,217,0.0,2.0,79,0.00,,BKN055,0.00,VWS V14.00,2013-02-12 04:20:00,
2013-02-11 23:30:00,37.6,31.7,30.06,SW,219,0.0,2.0,79,0.00,,BKN055,0.00,VWS V14.00,2013-02-12 04:30:00,
2013-02-11 23:40:00,37.2,31.6,30.07,WSW,237,0.0,3.0,80,0.00,,BKN055,0.00,VWS V14.00,2013-02-12 04:40:00,
2013-02-11 23:50:00,37.5,31.6,30.07,WSW,241,0.0,3.0,79,0.00,,BKN055,0.00,VWS V14.00,2013-02-12 04:50:00,